KTEX

Telluride Regional Airport

Telluride, Colorado, USA
KTEX 161734Z 1618/1718 29003KT P6SM SCT060 SCT120 FM162000 27008KT P6SM VCTS SCT060CB BKN120 TEMPO 1621/1701 VRB15G25KT -TSRA BKN060CB BKN120 FM170300 21005KT P6SM VCTS SCT070CB BKN120 FM170500 14006KT P6SM SCT060 BKN140 FM170800 VRB03KT P6SM FEW150 FM171200 14005KT P6SM FEW150
Issued Valid From Valid To
Jul-16 @ 17:34 UTC
(2 hours ago)
Jul-16 @ 18:00 UTC
(2 hours ago)
Jul-17 @ 18:00 UTC
(in 22 hours)
Jul-16 @ 18:00 to Jul-16 @ 20:00
KTEX 161734Z 1618/1718 29003KT P6SM SCT060 SCT120
Wind Visibility Clouds
290° at 3 knots Greater than 6 miles
  • Scattered at 6,000' AGL
  • Scattered at 12,000' AGL
From Jul-16 @ 20:00 to Jul-17 @ 03:00
FM162000 27008KT P6SM VCTS SCT060CB BKN120
Wind Visibility Clouds Conditions
270° at 8 knots Greater than 6 miles
  • Scattered at 6,000' AGL
  • Broken at 12,000' AGL
  • Area Thunderstorm
Temporary Jul-16 @ 21:00 to Jul-17 @ 01:00
TEMPO 1621/1701 VRB15G25KT -TSRA BKN060CB BKN120
Wind Clouds Conditions
Variable at 15 knots
 Gusting to 25 knots
  • Broken at 6,000' AGL
  • Broken at 12,000' AGL
  • Light Thunderstorm
  • Light Rain
From Jul-17 @ 03:00 to Jul-17 @ 05:00
FM170300 21005KT P6SM VCTS SCT070CB BKN120
Wind Visibility Clouds Conditions
210° at 5 knots Greater than 6 miles
  • Scattered at 7,000' AGL
  • Broken at 12,000' AGL
  • Area Thunderstorm
From Jul-17 @ 05:00 to Jul-17 @ 08:00
FM170500 14006KT P6SM SCT060 BKN140
Wind Visibility Clouds
140° at 6 knots Greater than 6 miles
  • Scattered at 6,000' AGL
  • Broken at 14,000' AGL
From Jul-17 @ 08:00 to Jul-17 @ 12:00
FM170800 VRB03KT P6SM FEW150
Wind Visibility Clouds
Variable at 3 knots Greater than 6 miles
  • Few at 15,000' AGL
From Jul-17 @ 12:00 to Jul-17 @ 18:00
FM171200 14005KT P6SM FEW150
Wind Visibility Clouds
140° at 5 knots Greater than 6 miles
  • Few at 15,000' AGL
KTEX 161734Z 1618/1718 29003KT P6SM SCT060 SCT120 FM162000 27008KT P6SM VCTS SCT060CB BKN120 TEMPO 1621/1701 VRB15G25KT -TSRA BKN060CB BKN120 FM170300 21005KT P6SM VCTS SCT070CB BKN120 FM170500 14006KT P6SM SCT060 BKN140 FM170800 VRB03KT P6SM FEW150 FM171200 14005KT P6SM FEW150
Issued Jul-16 @ 17:34 UTC
(2 hours ago)
Valid From Jul-16 @ 18:00 UTC
(2 hours ago)
Valid To Jul-17 @ 18:00 UTC
(in 22 hours)
Jul-16 @ 18:00 - Jul-16 @ 20:00
Wind Visibility
290° at 3 knots Greater than 6 miles
Clouds
  • Scattered at 6,000' AGL
  • Scattered at 12,000' AGL
From Jul-16 @ 20:00 - Jul-17 @ 03:00
Wind Visibility
270° at 8 knots Greater than 6 miles
Clouds
  • Scattered at 6,000' AGL
  • Broken at 12,000' AGL
Conditions
  • Area Thunderstorm
Temporary Jul-16 @ 21:00 - Jul-17 @ 01:00
Wind
Variable at 15 knots
 Gusting to 25 knots
Clouds
  • Broken at 6,000' AGL
  • Broken at 12,000' AGL
Conditions
  • Light Thunderstorm
  • Light Rain
From Jul-17 @ 03:00 - Jul-17 @ 05:00
Wind Visibility
210° at 5 knots Greater than 6 miles
Clouds
  • Scattered at 7,000' AGL
  • Broken at 12,000' AGL
Conditions
  • Area Thunderstorm
From Jul-17 @ 05:00 - Jul-17 @ 08:00
Wind Visibility
140° at 6 knots Greater than 6 miles
Clouds
  • Scattered at 6,000' AGL
  • Broken at 14,000' AGL
From Jul-17 @ 08:00 - Jul-17 @ 12:00
Wind Visibility
Variable at 3 knots Greater than 6 miles
Clouds
  • Few at 15,000' AGL
From Jul-17 @ 12:00 - Jul-17 @ 18:00
Wind Visibility
140° at 5 knots Greater than 6 miles
Clouds
  • Few at 15,000' AGL